createdAt,value
2022-12-23T00:04:47.481Z,16.55
2022-12-23T00:09:50.673Z,17.60
2022-12-23T00:14:52.382Z,16.60
2022-12-23T00:19:54.150Z,15.77
2022-12-23T00:24:57.272Z,15.65
2022-12-23T00:29:59.021Z,14.93
2022-12-23T00:35:00.710Z,15.73
2022-12-23T00:40:06.984Z,14.25
2022-12-23T00:45:09.635Z,13.62
2022-12-23T00:50:11.610Z,12.98
2022-12-23T00:55:14.862Z,13.98
2022-12-23T01:00:17.071Z,12.95
2022-12-23T01:05:18.960Z,13.00
2022-12-23T01:10:22.086Z,12.40
2022-12-23T01:15:24.243Z,13.38
2022-12-23T01:20:26.000Z,13.73
2022-12-23T01:25:30.266Z,12.48
2022-12-23T01:30:32.098Z,12.73
2022-12-23T01:35:33.825Z,13.70
2022-12-23T01:40:37.188Z,14.55
2022-12-23T01:45:38.974Z,13.13
2022-12-23T01:50:44.652Z,13.27
2022-12-23T01:55:51.794Z,13.13
2022-12-23T02:00:55.609Z,15.00
2022-12-23T02:05:58.340Z,13.05
2022-12-23T02:11:35.370Z,13.82
2022-12-23T02:16:43.629Z,14.52
2022-12-23T02:22:18.478Z,13.65
2022-12-23T02:27:28.299Z,13.23
2022-12-23T02:32:42.213Z,13.30
2022-12-23T02:37:51.535Z,12.55
2022-12-23T02:43:01.338Z,14.15
2022-12-23T02:48:09.017Z,13.48
2022-12-23T02:53:17.710Z,13.95
2022-12-23T02:58:24.499Z,15.13
2022-12-23T03:03:29.124Z,13.55
2022-12-23T03:08:35.621Z,14.15
2022-12-23T03:14:09.541Z,13.75
2022-12-23T03:19:26.016Z,13.77
2022-12-23T03:24:38.402Z,13.77
2022-12-23T03:29:45.615Z,14.30
2022-12-23T03:34:52.163Z,14.55
2022-12-23T03:39:58.663Z,14.02
2022-12-23T03:45:37.036Z,13.98
2022-12-23T03:55:34.913Z,13.27
2022-12-23T04:00:43.960Z,14.15
2022-12-23T04:05:52.267Z,14.40
2022-12-23T04:10:54.394Z,15.13
2022-12-23T04:15:58.046Z,16.08
2022-12-23T04:21:01.190Z,15.70
2022-12-23T04:26:03.094Z,15.73
2022-12-23T04:31:05.036Z,14.57
2022-12-23T04:36:08.256Z,15.15
2022-12-23T04:41:09.980Z,15.48
2022-12-23T04:46:11.754Z,15.68
2022-12-23T04:51:14.874Z,14.50
2022-12-23T04:56:16.605Z,13.13
2022-12-23T05:01:18.383Z,13.50
2022-12-23T05:06:22.076Z,12.77
2022-12-23T05:11:23.900Z,12.13
2022-12-23T05:16:25.946Z,12.10
2022-12-23T05:21:29.231Z,13.38
2022-12-23T05:26:30.912Z,12.77
2022-12-23T05:31:33.191Z,11.82
2022-12-23T05:36:36.306Z,11.40
2022-12-23T05:41:37.987Z,13.00
2022-12-23T05:46:39.786Z,11.93
2022-12-23T05:51:42.982Z,13.35
2022-12-23T05:56:44.646Z,12.95
2022-12-23T06:01:46.411Z,14.07
2022-12-23T06:06:49.604Z,14.02
2022-12-23T06:11:51.301Z,14.23
2022-12-23T06:16:53.037Z,14.02
2022-12-23T06:21:56.105Z,14.05
2022-12-23T06:26:57.806Z,15.05
2022-12-23T06:31:59.490Z,13.70
2022-12-23T06:37:02.661Z,15.00
2022-12-23T06:42:04.451Z,14.60
2022-12-23T06:47:06.193Z,15.38
2022-12-23T06:52:09.738Z,15.13
2022-12-23T06:57:11.571Z,14.38
2022-12-23T07:02:13.425Z,15.57
2022-12-23T07:07:16.557Z,15.70
2022-12-23T07:12:18.234Z,15.63
2022-12-23T07:17:19.854Z,15.68
2022-12-23T07:22:23.023Z,16.25
2022-12-23T07:27:24.709Z,15.90
2022-12-23T07:32:26.437Z,17.48
2022-12-23T07:37:30.245Z,16.87
2022-12-23T07:42:47.380Z,16.35
2022-12-23T07:47:52.298Z,16.25
2022-12-23T07:52:55.666Z,16.83
2022-12-23T07:57:57.359Z,16.25
2022-12-23T08:02:59.170Z,14.95
2022-12-23T08:08:02.361Z,13.93
2022-12-23T08:13:04.015Z,13.32
2022-12-23T08:18:05.799Z,14.32
2022-12-23T08:23:08.881Z,14.52
2022-12-23T08:28:10.608Z,13.43
2022-12-23T08:33:12.279Z,14.05
2022-12-23T08:38:15.382Z,12.95
2022-12-23T08:43:17.157Z,13.00
2022-12-23T08:48:18.951Z,12.00
2022-12-23T08:53:22.129Z,13.02
2022-12-23T08:58:23.858Z,13.27
2022-12-23T09:03:28.200Z,13.27
2022-12-23T09:08:31.467Z,13.60
2022-12-23T09:13:51.208Z,12.70
2022-12-23T09:18:53.172Z,14.50
2022-12-23T09:23:56.293Z,14.60
2022-12-23T09:28:58.254Z,14.20
2022-12-23T09:34:00.025Z,14.87
2022-12-23T09:39:04.133Z,14.38
2022-12-23T09:44:29.642Z,14.63
2022-12-23T09:49:33.592Z,14.45
2022-12-23T09:54:44.256Z,13.65
2022-12-23T09:59:57.824Z,14.38
2022-12-23T10:05:13.858Z,14.07
2022-12-23T10:10:23.763Z,15.80
2022-12-23T10:15:30.742Z,14.50
2022-12-23T10:20:42.766Z,15.48
2022-12-23T10:25:50.490Z,15.25
2022-12-23T10:36:50.397Z,15.32
2022-12-23T10:42:05.288Z,16.77
2022-12-23T10:52:35.698Z,15.65
2022-12-23T10:57:39.925Z,16.83
2022-12-23T11:02:50.624Z,16.95
2022-12-23T11:07:52.583Z,17.55
2022-12-23T11:12:55.813Z,16.87
2022-12-23T11:17:59.615Z,16.65
2022-12-23T11:23:03.558Z,17.20
2022-12-23T11:28:15.316Z,16.77
2022-12-23T11:33:24.730Z,16.83
2022-12-23T11:38:26.638Z,16.40
2022-12-23T11:43:31.748Z,16.35
2022-12-23T11:48:35.223Z,15.70
2022-12-23T11:53:42.345Z,15.30
2022-12-23T11:58:48.648Z,14.75
2022-12-23T12:03:55.938Z,16.37
2022-12-23T12:09:00.071Z,16.35
2022-12-23T12:14:05.323Z,15.95
2022-12-23T12:24:19.268Z,17.03
2022-12-23T12:29:27.221Z,15.57
2022-12-23T12:34:40.225Z,16.80
2022-12-23T12:39:47.034Z,16.00
2022-12-23T12:44:59.526Z,17.27
2022-12-23T12:50:06.408Z,17.58
2022-12-23T12:55:16.685Z,17.62
2022-12-23T13:00:23.146Z,17.75
2022-12-23T13:05:38.423Z,18.08
2022-12-23T13:10:45.506Z,20.35
2022-12-23T13:15:54.437Z,18.95
2022-12-23T13:21:02.605Z,20.17
2022-12-23T13:26:13.969Z,19.85
2022-12-23T13:31:33.553Z,20.12
2022-12-23T13:36:45.567Z,18.58
2022-12-23T13:41:51.640Z,18.48
2022-12-23T13:47:05.106Z,17.90
2022-12-23T13:52:11.726Z,17.42
2022-12-23T13:57:28.476Z,17.02
2022-12-23T14:02:48.800Z,16.27
2022-12-23T14:07:50.677Z,15.60
2022-12-23T14:12:58.836Z,17.12
2022-12-23T14:18:16.423Z,17.50
2022-12-23T14:23:32.172Z,17.45
2022-12-23T14:29:12.601Z,16.92
2022-12-23T14:34:28.907Z,17.85
2022-12-23T14:39:32.043Z,19.30
2022-12-23T14:44:46.584Z,19.60
2022-12-23T14:49:54.360Z,19.37
2022-12-23T14:55:28.431Z,20.30
2022-12-23T15:00:18.585Z,19.83
2022-12-23T15:05:24.081Z,20.08
2022-12-23T15:10:27.124Z,22.02
2022-12-23T15:15:30.116Z,22.45
2022-12-23T15:20:33.575Z,22.02
2022-12-23T15:26:04.572Z,21.75
2022-12-23T15:31:17.923Z,21.95
2022-12-23T15:36:28.657Z,21.50
2022-12-23T15:41:30.674Z,20.20
2022-12-23T15:46:32.520Z,22.50
2022-12-23T15:57:04.272Z,18.50
2022-12-23T16:07:44.647Z,16.40
2022-12-23T16:12:50.047Z,15.52
2022-12-23T16:23:00.425Z,14.75
2022-12-23T16:28:04.931Z,13.00
2022-12-23T16:33:21.920Z,12.47
2022-12-23T16:38:26.329Z,12.07
2022-12-23T16:43:28.023Z,12.17
2022-12-23T16:48:32.306Z,12.32
2022-12-23T16:53:35.394Z,12.35
2022-12-23T16:58:37.172Z,12.93
2022-12-23T17:03:38.924Z,11.40
2022-12-23T17:08:42.822Z,12.00
2022-12-23T17:13:45.161Z,10.73
2022-12-23T17:18:47.200Z,10.25
2022-12-23T17:23:50.799Z,10.57
2022-12-23T17:28:52.521Z,10.57
2022-12-23T17:33:54.484Z,10.48
2022-12-23T17:38:57.700Z,9.52
2022-12-23T17:44:00.861Z,9.20
2022-12-23T17:49:02.512Z,10.88
2022-12-23T17:54:06.286Z,10.70
2022-12-23T17:59:07.945Z,9.95
2022-12-23T18:04:09.699Z,9.93
2022-12-23T18:09:12.886Z,9.95
2022-12-23T18:14:19.365Z,10.32
2022-12-23T18:19:21.510Z,11.45
2022-12-23T18:24:25.972Z,12.77
2022-12-23T18:29:27.723Z,10.93
2022-12-23T18:34:29.441Z,10.07
2022-12-23T18:39:32.770Z,12.50
2022-12-23T18:44:34.599Z,10.35
2022-12-23T18:49:36.689Z,10.13
2022-12-23T18:54:39.912Z,10.25
2022-12-23T18:59:41.649Z,10.18
2022-12-23T19:04:43.542Z,10.77
2022-12-23T19:09:46.622Z,10.90
2022-12-23T19:14:48.368Z,11.18
2022-12-23T19:19:50.140Z,10.90
2022-12-23T19:25:05.396Z,11.10
2022-12-23T19:30:10.511Z,10.45
2022-12-23T19:35:13.824Z,11.27
2022-12-23T19:40:17.104Z,11.65
2022-12-23T19:45:18.982Z,10.60
2022-12-23T19:50:20.753Z,11.02
2022-12-23T19:55:23.989Z,11.18
2022-12-23T20:00:25.923Z,10.27
2022-12-23T20:05:28.181Z,10.52
2022-12-23T20:10:31.393Z,11.10
2022-12-23T20:15:33.256Z,10.85
2022-12-23T20:20:35.048Z,11.40
2022-12-23T20:25:38.203Z,10.95
2022-12-23T20:30:40.055Z,10.48
2022-12-23T20:35:41.968Z,10.10
2022-12-23T20:40:45.317Z,10.48
2022-12-23T20:57:51.509Z,10.98
2022-12-23T21:08:54.028Z,10.65
2022-12-23T21:14:02.576Z,11.25
2022-12-23T21:19:10.882Z,12.05
2022-12-23T21:24:13.285Z,11.07
2022-12-23T21:29:16.993Z,10.55
2022-12-23T21:34:21.960Z,10.35
2022-12-23T21:39:23.723Z,11.12
2022-12-23T21:44:26.953Z,11.00
2022-12-23T21:49:28.745Z,10.98
2022-12-23T21:54:30.530Z,9.80
2022-12-23T21:59:35.464Z,10.57
2022-12-23T22:04:37.465Z,10.30
2022-12-23T22:09:39.418Z,8.90
2022-12-23T22:14:42.649Z,11.30
2022-12-23T22:19:44.421Z,10.35
2022-12-23T22:24:49.219Z,9.70
2022-12-23T22:29:52.558Z,10.18
2022-12-23T22:34:54.312Z,10.05
2022-12-23T22:39:56.050Z,10.05
2022-12-23T22:44:59.290Z,10.93
2022-12-23T22:50:01.334Z,10.82
2022-12-23T22:55:03.976Z,10.00
2022-12-23T23:00:49.123Z,10.43
2022-12-23T23:05:59.185Z,10.20
2022-12-23T23:11:03.470Z,10.23
2022-12-23T23:16:07.350Z,10.05
2022-12-23T23:21:10.915Z,10.65
2022-12-23T23:26:13.043Z,9.98
2022-12-23T23:31:41.299Z,10.02
2022-12-23T23:36:38.029Z,9.85
2022-12-23T23:41:40.256Z,10.20
2022-12-23T23:46:44.642Z,10.77
2022-12-23T23:51:46.352Z,10.10
2022-12-23T23:56:48.054Z,10.20
